Time;durP1;ratioP1;P1;durP2;ratioP2;P2;SDS_P1;SDS_P2;PMS_P1;PMS_P2;Temp;Humidity;BMP_temperature;BMP_pressure;BME280_temperature;BME280_humidity;BME280_pressure;Samples;Min_cycle;Max_cycle;Signal;HPM_P1;HPM_P2
2023/05/03 00:00:11;;;;;;;8.53;4.70;;;6.20;99.90;;;;;;4914081;29;20239;-78
2023/05/03 00:02:38;;;;;;;10.50;4.90;;;6.20;99.90;;;;;;4915503;29;20219;-77
2023/05/03 00:05:11;;;;;;;9.77;4.77;;;6.20;99.90;;;;;;4920614;29;20685;-78
2023/05/03 00:07:42;;;;;;;6.10;4.50;;;6.10;99.90;;;;;;4918293;29;20370;-78
2023/05/03 00:10:14;;;;;;;8.23;5.27;;;6.10;99.90;;;;;;4914219;29;20249;-80
2023/05/03 00:12:42;;;;;;;6.73;4.67;;;6.00;99.90;;;;;;4897402;29;20222;-79
2023/05/03 00:15:10;;;;;;;10.90;5.17;;;6.00;99.90;;;;;;4913728;29;20309;-79
2023/05/03 00:17:36;;;;;;;8.77;4.97;;;5.90;99.90;;;;;;4914154;29;20247;-78
2023/05/03 00:20:04;;;;;;;8.30;5.60;;;5.90;99.90;;;;;;4914123;29;20279;-77
2023/05/03 00:22:31;;;;;;;12.20;5.57;;;5.90;99.90;;;;;;4892780;29;20265;-77
2023/05/03 00:24:58;;;;;;;8.83;4.77;;;5.80;99.90;;;;;;4910596;29;20215;-78
2023/05/03 00:27:25;;;;;;;11.17;4.90;;;5.80;99.90;;;;;;4914757;29;20647;-77
2023/05/03 00:29:52;;;;;;;7.00;4.67;;;5.80;99.90;;;;;;4912459;29;20641;-78
2023/05/03 00:32:22;;;;;;;10.77;4.90;;;5.70;99.90;;;;;;4913534;29;20209;-76
2023/05/03 00:34:55;;;;;;;9.13;3.73;;;5.70;99.90;;;;;;4913963;29;20218;-80
2023/05/03 00:37:23;;;;;;;8.13;5.43;;;5.60;99.90;;;;;;4914155;29;20197;-78
2023/05/03 00:39:51;;;;;;;9.80;4.50;;;5.60;99.90;;;;;;4896720;29;20304;-77
2023/05/03 00:42:18;;;;;;;6.37;4.73;;;5.60;99.90;;;;;;4913368;29;20734;-80
2023/05/03 00:44:44;;;;;;;8.63;4.10;;;5.60;99.90;;;;;;4911903;29;20235;-79
2023/05/03 00:47:11;;;;;;;5.37;4.53;;;5.60;99.90;;;;;;4913653;29;20313;-77
2023/05/03 00:49:38;;;;;;;10.33;4.30;;;5.50;99.90;;;;;;4913288;29;20261;-78
2023/05/03 00:52:05;;;;;;;5.57;4.00;;;5.40;99.90;;;;;;4913356;29;20225;-78
2023/05/03 00:54:34;;;;;;;9.80;3.90;;;5.30;99.90;;;;;;4912871;29;20239;-78
2023/05/03 00:57:03;;;;;;;14.67;5.20;;;5.30;99.90;;;;;;4897817;29;20198;-79
2023/05/03 00:59:31;;;;;;;5.47;3.67;;;5.30;99.90;;;;;;4913011;29;20266;-79
2023/05/03 01:01:58;;;;;;;3.83;3.40;;;5.20;99.90;;;;;;4917696;29;20219;-78
2023/05/03 01:04:25;;;;;;;7.83;4.07;;;5.20;99.90;;;;;;4894721;29;20220;-78
2023/05/03 01:07:22;;;;;;;5.20;3.60;;;5.20;99.90;;;;;;4915265;29;20269;-77
2023/05/03 01:10:28;;;;;;;5.80;4.00;;;5.10;99.90;;;;;;4908834;29;20266;-77
2023/05/03 01:13:15;;;;;;;6.43;3.83;;;5.10;99.90;;;;;;4911029;29;20210;-80
2023/05/03 01:16:00;;;;;;;9.20;3.77;;;5.00;99.90;;;;;;4911414;29;20233;-78
2023/05/03 01:18:33;;;;;;;4.80;3.43;;;5.00;99.90;;;;;;4911114;29;20283;-77
2023/05/03 01:21:01;;;;;;;5.10;3.80;;;4.90;99.90;;;;;;4912905;29;20610;-80
2023/05/03 01:23:29;;;;;;;11.83;4.10;;;4.90;99.90;;;;;;4914788;29;20203;-79
2023/05/03 01:25:56;;;;;;;7.80;4.20;;;4.90;99.90;;;;;;4912837;29;20280;-76
2023/05/03 01:28:23;;;;;;;10.73;4.07;;;4.80;99.90;;;;;;4912826;29;20315;-79
2023/05/03 01:30:52;;;;;;;7.00;4.40;;;4.80;99.90;;;;;;4912445;29;20701;-78
2023/05/03 01:33:18;;;;;;;8.37;4.13;;;4.80;99.90;;;;;;4895240;29;20245;-78
2023/05/03 01:36:10;;;;;;;7.57;4.23;;;4.70;99.90;;;;;;4913114;29;20207;-76
2023/05/03 01:38:38;;;;;;;6.57;3.90;;;4.70;99.90;;;;;;4912657;29;20234;-77
2023/05/03 01:41:10;;;;;;;8.03;4.23;;;4.70;99.90;;;;;;4891991;29;20217;-78
2023/05/03 01:43:37;;;;;;;6.23;4.03;;;4.70;99.90;;;;;;4912590;29;20293;-78
2023/05/03 01:46:04;;;;;;;6.37;4.30;;;4.60;99.90;;;;;;4912544;29;20335;-78
2023/05/03 01:48:31;;;;;;;7.80;3.80;;;4.60;99.90;;;;;;4912417;29;20277;-78
2023/05/03 01:50:58;;;;;;;4.80;3.53;;;4.60;99.90;;;;;;4912364;29;20202;-78
2023/05/03 01:53:25;;;;;;;8.00;4.00;;;4.60;99.90;;;;;;4912843;29;20263;-79
2023/05/03 01:55:52;;;;;;;7.77;4.33;;;4.60;99.90;;;;;;4915350;29;20235;-79
2023/05/03 01:58:18;;;;;;;8.27;4.03;;;4.60;99.90;;;;;;4912489;29;20207;-80
2023/05/03 02:00:45;;;;;;;8.87;4.77;;;4.60;99.90;;;;;;4914638;29;20224;-78
2023/05/03 02:03:12;;;;;;;11.33;4.67;;;4.50;99.90;;;;;;4912915;29;20215;-77
2023/05/03 02:05:40;;;;;;;7.10;4.90;;;4.50;99.90;;;;;;4894197;29;20223;-79
2023/05/03 02:08:07;;;;;;;6.43;3.97;;;4.50;99.90;;;;;;4911583;29;20259;-78
2023/05/03 02:10:33;;;;;;;7.77;4.23;;;4.50;99.90;;;;;;4913468;29;20293;-77
2023/05/03 02:13:00;;;;;;;5.77;4.13;;;4.40;99.90;;;;;;4911756;29;20210;-78
2023/05/03 02:15:27;;;;;;;8.30;4.27;;;4.40;99.90;;;;;;4912248;29;20315;-78
2023/05/03 02:17:54;;;;;;;7.63;4.80;;;4.40;99.90;;;;;;4914989;29;20307;-79
2023/05/03 02:20:21;;;;;;;7.60;4.27;;;4.40;99.90;;;;;;4895013;29;20215;-78
2023/05/03 02:22:47;;;;;;;9.67;4.30;;;4.30;99.90;;;;;;4912128;29;20230;-79
2023/05/03 02:25:14;;;;;;;7.00;4.10;;;4.30;99.90;;;;;;4911835;29;20269;-79
2023/05/03 02:27:41;;;;;;;6.73;4.03;;;4.30;99.90;;;;;;4911565;29;20716;-77
2023/05/03 02:30:08;;;;;;;6.27;4.20;;;4.30;99.90;;;;;;4910729;29;20233;-78
2023/05/03 02:32:35;;;;;;;7.23;4.43;;;4.20;99.90;;;;;;4912170;29;20245;-78
2023/05/03 02:35:01;;;;;;;8.40;4.20;;;4.20;99.90;;;;;;4920883;29;20357;-78
2023/05/03 02:37:28;;;;;;;5.73;4.10;;;4.20;99.90;;;;;;4914711;29;20206;-79
2023/05/03 02:39:55;;;;;;;8.90;3.80;;;4.20;99.90;;;;;;4894659;29;20209;-77
2023/05/03 02:42:22;;;;;;;7.00;3.70;;;4.20;99.90;;;;;;4911459;29;20570;-77
2023/05/03 02:44:49;;;;;;;8.83;4.30;;;4.10;99.90;;;;;;4911273;29;20222;-78
2023/05/03 02:47:16;;;;;;;7.33;4.27;;;4.10;99.90;;;;;;4915077;29;20258;-79
2023/05/03 02:49:42;;;;;;;8.83;3.87;;;4.10;99.90;;;;;;4911705;29;20226;-78
2023/05/03 02:52:09;;;;;;;6.93;4.27;;;4.10;99.90;;;;;;4907978;29;20229;-79
2023/05/03 02:54:36;;;;;;;4.80;3.80;;;4.00;99.90;;;;;;4911484;29;20715;-78
2023/05/03 02:57:03;;;;;;;6.47;4.17;;;4.00;99.90;;;;;;4911707;29;20690;-77
2023/05/03 02:59:31;;;;;;;8.73;4.67;;;4.00;99.90;;;;;;4901268;29;20220;-79
2023/05/03 03:01:58;;;;;;;8.63;4.67;;;4.00;99.90;;;;;;4917362;29;20274;-76
2023/05/03 03:04:25;;;;;;;9.67;4.37;;;3.90;99.90;;;;;;4892059;29;20270;-77
2023/05/03 03:06:55;;;;;;;7.77;4.47;;;3.90;99.90;;;;;;4912655;29;20216;-79
2023/05/03 03:09:22;;;;;;;10.10;4.20;;;3.90;99.90;;;;;;4911849;29;20611;-79
2023/05/03 03:11:51;;;;;;;7.33;4.77;;;3.90;99.90;;;;;;4911953;29;20289;-79
2023/05/03 03:14:18;;;;;;;8.33;4.93;;;3.90;99.90;;;;;;4913815;29;20226;-81
2023/05/03 03:16:45;;;;;;;5.37;3.90;;;3.80;99.90;;;;;;4911717;29;20329;-80
2023/05/03 03:19:12;;;;;;;11.20;4.47;;;3.80;99.90;;;;;;4911161;29;20514;-78
2023/05/03 03:21:39;;;;;;;8.17;4.27;;;3.80;99.90;;;;;;4912620;29;20214;-80
2023/05/03 03:24:06;;;;;;;7.67;4.00;;;3.80;99.90;;;;;;4911518;29;20207;-81
2023/05/03 03:26:33;;;;;;;7.53;4.87;;;3.80;99.90;;;;;;4911273;29;20258;-80
2023/05/03 03:29:00;;;;;;;7.27;4.30;;;3.80;99.90;;;;;;4911654;29;20229;-78
2023/05/03 03:31:26;;;;;;;6.63;4.50;;;3.80;99.90;;;;;;4897845;29;20266;-79
2023/05/03 03:33:53;;;;;;;7.67;4.57;;;3.70;99.90;;;;;;4897872;29;20923;-78
2023/05/03 03:36:20;;;;;;;7.77;4.07;;;3.70;99.90;;;;;;4914786;29;20561;-78
2023/05/03 03:38:47;;;;;;;9.07;4.60;;;3.70;99.90;;;;;;4914495;29;20215;-79
2023/05/03 03:41:13;;;;;;;8.47;4.70;;;3.70;99.90;;;;;;4914466;29;20598;-80
2023/05/03 03:43:40;;;;;;;6.90;4.60;;;3.60;99.90;;;;;;4914424;29;20252;-78
2023/05/03 03:46:07;;;;;;;7.83;5.00;;;3.70;99.90;;;;;;4914366;29;20332;-79
2023/05/03 03:48:33;;;;;;;10.37;4.30;;;3.60;99.90;;;;;;4896917;29;20655;-77
2023/05/03 03:51:00;;;;;;;7.67;4.33;;;3.60;99.90;;;;;;4912968;29;20638;-79
2023/05/03 03:53:27;;;;;;;8.73;4.00;;;3.60;99.90;;;;;;4914312;29;20645;-79
2023/05/03 03:55:55;;;;;;;6.97;4.83;;;3.60;99.90;;;;;;4913395;28;20598;-80
2023/05/03 03:58:22;;;;;;;10.43;4.50;;;3.50;99.90;;;;;;4918138;29;20214;-78
2023/05/03 04:00:49;;;;;;;12.50;5.00;;;3.60;99.90;;;;;;4919495;29;20325;-78
2023/05/03 04:03:16;;;;;;;8.50;4.57;;;3.50;99.90;;;;;;4915365;29;20278;-84
2023/05/03 04:05:43;;;;;;;6.20;4.57;;;3.50;99.90;;;;;;4894911;29;20203;-80
2023/05/03 04:08:10;;;;;;;9.17;4.30;;;3.40;99.90;;;;;;4914203;29;20238;-77
2023/05/03 04:10:36;;;;;;;6.00;4.47;;;3.40;99.90;;;;;;4914409;29;20590;-78
2023/05/03 04:13:03;;;;;;;7.33;4.30;;;3.30;99.90;;;;;;4913879;29;20245;-77
2023/05/03 04:15:30;;;;;;;7.87;4.37;;;3.30;99.90;;;;;;4914004;29;20222;-78
2023/05/03 04:17:56;;;;;;;8.77;4.87;;;3.30;99.90;;;;;;4914329;29;20644;-78
2023/05/03 04:20:23;;;;;;;12.90;4.90;;;3.20;99.90;;;;;;4913833;29;20226;-81
2023/05/03 04:22:50;;;;;;;8.47;4.33;;;3.20;99.90;;;;;;4913571;29;20691;-79
2023/05/03 04:25:17;;;;;;;8.30;4.53;;;3.10;99.90;;;;;;4913607;29;20759;-78
2023/05/03 04:27:44;;;;;;;7.40;4.63;;;3.10;99.90;;;;;;4913704;29;20233;-79
2023/05/03 04:30:14;;;;;;;11.17;4.90;;;3.10;99.90;;;;;;4913435;29;20774;-78
2023/05/03 04:32:41;;;;;;;8.77;4.40;;;3.10;99.90;;;;;;4913768;29;20290;-77
2023/05/03 04:35:11;;;;;;;9.20;5.60;;;3.10;99.90;;;;;;4896875;29;20273;-77
2023/05/03 04:37:40;;;;;;;6.63;4.67;;;3.10;99.90;;;;;;4913875;29;20289;-77
2023/05/03 04:40:09;;;;;;;9.67;4.73;;;3.10;99.90;;;;;;4913120;29;20317;-76
2023/05/03 04:42:36;;;;;;;8.73;4.83;;;3.20;99.90;;;;;;4913374;29;20642;-79
2023/05/03 04:45:05;;;;;;;10.90;4.73;;;3.20;99.90;;;;;;4913731;29;20297;-78
2023/05/03 04:47:32;;;;;;;13.10;5.07;;;3.20;99.90;;;;;;4896744;29;20249;-78
2023/05/03 04:50:00;;;;;;;7.80;4.37;;;3.30;99.90;;;;;;4913490;29;20206;-78
2023/05/03 04:52:28;;;;;;;11.90;5.57;;;3.30;99.90;;;;;;4913021;29;20313;-80
2023/05/03 04:54:54;;;;;;;7.83;4.80;;;3.40;99.90;;;;;;4910240;29;20329;-77
2023/05/03 04:57:21;;;;;;;7.27;4.90;;;3.40;99.90;;;;;;4918411;29;20230;-79
2023/05/03 04:59:48;;;;;;;7.40;5.17;;;3.40;99.90;;;;;;4916836;29;20314;-80
2023/05/03 05:02:15;;;;;;;6.27;4.63;;;3.50;99.90;;;;;;4912916;29;20238;-79
2023/05/03 05:04:43;;;;;;;10.00;4.63;;;3.50;99.90;;;;;;4913081;29;20659;-78
2023/05/03 05:07:10;;;;;;;12.03;5.43;;;3.50;99.90;;;;;;4910225;29;20207;-79
2023/05/03 05:09:39;;;;;;;13.03;5.33;;;3.60;99.90;;;;;;4914889;29;20257;-77
2023/05/03 05:12:06;;;;;;;9.90;5.83;;;3.60;99.90;;;;;;4912800;29;20313;-77
2023/05/03 05:14:33;;;;;;;6.37;5.03;;;3.70;99.90;;;;;;4896021;29;20316;-78
2023/05/03 05:16:59;;;;;;;8.97;5.03;;;3.70;99.90;;;;;;4913011;29;20222;-79
2023/05/03 05:19:26;;;;;;;12.37;5.47;;;3.80;99.90;;;;;;4913996;29;20219;-78
2023/05/03 05:21:53;;;;;;;12.40;5.23;;;3.80;99.90;;;;;;4913064;29;20271;-78
2023/05/03 05:24:20;;;;;;;8.30;5.27;;;3.90;99.90;;;;;;4913668;29;20290;-77
2023/05/03 05:26:47;;;;;;;10.03;5.77;;;4.00;99.90;;;;;;4914059;29;20726;-78
2023/05/03 05:29:14;;;;;;;7.53;5.07;;;4.00;99.90;;;;;;4912158;29;20238;-77
2023/05/03 05:31:40;;;;;;;8.30;5.27;;;4.10;99.90;;;;;;4912627;29;20221;-77
2023/05/03 05:34:07;;;;;;;14.23;5.50;;;4.20;99.90;;;;;;4916265;29;20667;-80
2023/05/03 05:36:34;;;;;;;8.90;5.67;;;4.20;99.90;;;;;;4911182;29;20248;-79
2023/05/03 05:39:01;;;;;;;12.17;5.57;;;4.30;99.90;;;;;;4911271;29;20207;-80
2023/05/03 05:41:27;;;;;;;9.40;5.20;;;4.40;99.90;;;;;;4912151;29;20293;-79
2023/05/03 05:43:54;;;;;;;8.07;5.43;;;4.50;99.90;;;;;;4912300;29;20212;-79
2023/05/03 05:46:21;;;;;;;11.83;5.13;;;4.60;99.90;;;;;;4913423;29;20352;-77
2023/05/03 05:48:50;;;;;;;12.03;6.30;;;4.70;99.90;;;;;;4915337;29;20780;-80
2023/05/03 05:51:16;;;;;;;11.30;6.33;;;4.80;99.90;;;;;;4911366;29;20842;-79
2023/05/03 05:53:43;;;;;;;7.83;5.83;;;4.90;99.90;;;;;;4913690;29;20642;-77
2023/05/03 05:56:10;;;;;;;7.97;6.17;;;5.10;99.90;;;;;;4895589;29;20245;-77
2023/05/03 05:58:37;;;;;;;6.77;5.17;;;5.70;99.90;;;;;;4912710;29;20253;-77
2023/05/03 06:01:04;;;;;;;9.07;5.30;;;6.80;99.90;;;;;;4912307;29;20224;-78
2023/05/03 06:03:32;;;;;;;11.57;4.73;;;8.10;99.90;;;;;;4912677;29;20210;-77
2023/05/03 06:05:59;;;;;;;8.77;4.17;;;9.30;99.90;;;;;;4912349;29;20211;-76
2023/05/03 06:08:26;;;;;;;8.63;5.10;;;10.50;99.90;;;;;;4912622;29;20324;-77
2023/05/03 06:10:53;;;;;;;7.27;3.50;;;11.70;99.90;;;;;;4913013;29;20664;-77
2023/05/03 06:13:21;;;;;;;10.07;3.67;;;12.80;99.90;;;;;;4912265;29;20297;-76
2023/05/03 06:15:47;;;;;;;7.93;4.10;;;13.50;99.90;;;;;;4914043;29;20304;-76
2023/05/03 06:18:14;;;;;;;5.40;3.33;;;14.10;99.90;;;;;;4895419;29;20364;-77
2023/05/03 06:20:48;;;;;;;7.30;3.13;;;14.50;99.90;;;;;;4903299;29;20296;-78
2023/05/03 06:23:14;;;;;;;5.05;3.03;;;15.00;99.90;;;;;;4902380;29;20605;-79
2023/05/03 06:25:44;;;;;;;6.95;3.42;;;15.50;99.90;;;;;;4909708;29;20447;-78
2023/05/03 06:28:11;;;;;;;7.47;3.60;;;16.30;99.90;;;;;;4911847;29;20208;-77
2023/05/03 06:30:38;;;;;;;10.23;3.10;;;16.60;99.90;;;;;;4891435;29;20254;-76
2023/05/03 06:33:04;;;;;;;7.20;3.05;;;16.90;99.90;;;;;;4911867;29;20201;-78
2023/05/03 06:35:31;;;;;;;7.05;3.13;;;17.40;99.90;;;;;;4910813;29;20268;-75
2023/05/03 06:37:58;;;;;;;6.68;3.10;;;17.70;99.90;;;;;;4921181;29;20210;-77
2023/05/03 06:40:25;;;;;;;2.80;2.45;;;18.10;99.90;;;;;;4913598;29;20246;-78
2023/05/03 06:42:52;;;;;;;5.68;2.88;;;18.30;99.90;;;;;;4909372;29;20341;-77
2023/05/03 06:45:19;;;;;;;5.13;2.50;;;18.20;99.90;;;;;;4891230;29;20221;-78
2023/05/03 06:47:46;;;;;;;5.15;2.60;;;17.80;99.90;;;;;;4911865;29;20316;-77
2023/05/03 06:50:13;;;;;;;4.82;2.95;;;17.80;99.90;;;;;;4913790;29;20932;-78
2023/05/03 06:52:40;;;;;;;6.82;2.90;;;18.00;99.90;;;;;;4907951;29;20202;-78
2023/05/03 06:55:07;;;;;;;5.60;2.88;;;18.30;99.90;;;;;;4911943;29;20230;-78
2023/05/03 06:57:34;;;;;;;6.32;2.60;;;18.60;99.90;;;;;;4911579;29;20288;-77
2023/05/03 07:00:00;;;;;;;4.18;2.67;;;18.70;99.90;;;;;;4894849;29;20306;-77
2023/05/03 07:02:28;;;;;;;7.68;2.78;;;19.20;99.90;;;;;;4908795;29;20664;-78
2023/05/03 07:04:54;;;;;;;6.57;2.47;;;19.70;99.90;;;;;;4915137;29;20224;-76
2023/05/03 07:07:21;;;;;;;6.18;2.08;;;19.90;99.90;;;;;;4915305;29;20202;-76
2023/05/03 07:09:48;;;;;;;6.75;2.25;;;19.50;99.90;;;;;;4898425;29;20238;-77
2023/05/03 07:12:15;;;;;;;7.18;2.15;;;19.10;99.90;;;;;;4914756;29;20242;-75
2023/05/03 07:14:42;;;;;;;2.72;2.10;;;18.80;99.90;;;;;;4914478;29;20257;-77
2023/05/03 07:17:09;;;;;;;3.53;1.90;;;19.00;99.90;;;;;;4908722;29;20210;-78
2023/05/03 07:19:36;;;;;;;5.22;1.70;;;18.90;99.80;;;;;;4902656;29;20775;-78
2023/05/03 07:22:03;;;;;;;5.03;1.70;;;18.70;99.40;;;;;;4909703;29;20210;-77
2023/05/03 07:24:30;;;;;;;2.70;1.50;;;18.70;99.60;;;;;;4911986;29;20241;-78
2023/05/03 07:26:57;;;;;;;8.30;1.52;;;18.90;99.00;;;;;;4916350;29;20216;-78
2023/05/03 07:29:23;;;;;;;16.65;2.28;;;19.20;98.40;;;;;;4913514;29;20890;-78
2023/05/03 07:31:50;;;;;;;4.05;1.42;;;19.20;97.10;;;;;;4900972;29;20209;-80
2023/05/03 07:34:19;;;;;;;4.22;1.67;;;18.80;96.90;;;;;;4911231;29;20691;-79
2023/05/03 07:36:46;;;;;;;6.57;2.10;;;18.30;96.70;;;;;;4915064;29;20201;-78
2023/05/03 07:39:13;;;;;;;3.03;1.20;;;17.90;96.40;;;;;;4914946;29;20250;-79
2023/05/03 07:41:39;;;;;;;4.75;1.40;;;17.40;96.50;;;;;;4920641;29;20245;-78
2023/05/03 07:44:07;;;;;;;4.00;1.60;;;16.80;97.40;;;;;;4914456;29;20229;-77
2023/05/03 07:46:34;;;;;;;4.35;1.55;;;16.80;98.10;;;;;;4906111;29;20292;-76
2023/05/03 07:49:05;;;;;;;4.72;1.30;;;16.50;98.10;;;;;;4897891;29;20226;-77
2023/05/03 07:51:36;;;;;;;4.53;1.60;;;16.40;98.80;;;;;;4906009;29;20210;-79
2023/05/03 07:54:03;;;;;;;3.33;1.40;;;16.80;98.90;;;;;;4916871;29;20293;-77
2023/05/03 07:56:30;;;;;;;5.68;1.98;;;16.90;98.60;;;;;;4914162;29;20727;-77
2023/05/03 07:58:57;;;;;;;2.97;1.42;;;16.60;98.30;;;;;;4910678;29;20214;-78
2023/05/03 08:01:35;;;;;;;3.13;1.60;;;16.40;99.10;;;;;;4908891;29;20216;-76
2023/05/03 08:04:02;;;;;;;3.17;1.60;;;16.70;99.20;;;;;;4908813;29;20221;-76
2023/05/03 08:06:32;;;;;;;5.30;2.00;;;16.80;98.20;;;;;;4915382;29;20225;-76
2023/05/03 08:08:59;;;;;;;3.70;1.80;;;16.60;98.30;;;;;;4890475;29;20778;-78
2023/05/03 08:11:27;;;;;;;4.68;2.13;;;16.40;99.20;;;;;;4911588;29;20206;-77
2023/05/03 08:13:54;;;;;;;6.47;2.03;;;16.70;99.30;;;;;;4911756;29;20292;-77
2023/05/03 08:16:21;;;;;;;4.32;1.83;;;17.10;99.80;;;;;;4908066;29;20297;-78
2023/05/03 08:18:48;;;;;;;6.95;2.17;;;17.70;98.80;;;;;;4894360;29;20221;-78
2023/05/03 08:21:16;;;;;;;2.33;1.63;;;18.10;97.40;;;;;;4910435;29;20712;-79
2023/05/03 08:23:43;;;;;;;5.05;1.77;;;18.00;97.00;;;;;;4910483;29;20210;-76
2023/05/03 08:26:12;;;;;;;3.17;1.95;;;18.10;96.40;;;;;;4913231;29;20628;-78
2023/05/03 08:28:39;;;;;;;2.30;1.75;;;17.70;95.90;;;;;;4913129;29;20301;-76
2023/05/03 08:31:06;;;;;;;7.55;2.15;;;17.40;96.40;;;;;;4912110;29;20627;-78
2023/05/03 08:33:33;;;;;;;4.82;2.00;;;17.30;96.50;;;;;;4903814;29;20222;-78
2023/05/03 08:36:00;;;;;;;4.10;2.05;;;16.90;97.50;;;;;;4912377;29;20292;-77
2023/05/03 08:38:27;;;;;;;4.18;1.85;;;17.10;98.20;;;;;;4916868;29;20201;-77
2023/05/03 08:40:58;;;;;;;6.68;1.70;;;16.90;97.20;;;;;;4913523;29;20302;-79
2023/05/03 08:43:27;;;;;;;5.60;2.13;;;17.00;97.10;;;;;;4916486;29;20578;-77
2023/05/03 08:45:54;;;;;;;5.35;2.30;;;17.20;96.70;;;;;;4917177;29;20718;-78
2023/05/03 08:48:22;;;;;;;3.55;1.60;;;17.20;97.40;;;;;;4924278;29;20301;-78
2023/05/03 08:50:51;;;;;;;5.45;1.95;;;17.10;96.80;;;;;;4916739;29;20289;-78
2023/05/03 08:53:18;;;;;;;9.00;2.50;;;17.20;97.60;;;;;;4917266;29;20316;-77
2023/05/03 08:55:45;;;;;;;8.25;2.60;;;17.40;96.90;;;;;;4892279;29;20273;-77
2023/05/03 08:58:12;;;;;;;3.75;2.13;;;17.40;97.60;;;;;;4909751;29;20766;-79
2023/05/03 09:00:43;;;;;;;3.67;2.17;;;17.40;97.50;;;;;;4913040;29;20226;-77
2023/05/03 09:03:11;;;;;;;5.32;2.40;;;17.70;97.30;;;;;;4913239;29;20221;-78
2023/05/03 09:05:39;;;;;;;4.80;2.30;;;17.70;96.90;;;;;;4916512;29;20209;-78
2023/05/03 09:08:11;;;;;;;3.60;2.45;;;17.60;96.40;;;;;;4917054;29;20202;-78
2023/05/03 09:10:40;;;;;;;4.70;2.20;;;17.60;96.60;;;;;;4920396;29;20280;-77
2023/05/03 09:13:09;;;;;;;4.72;2.35;;;17.50;96.30;;;;;;4917444;29;20745;-77
2023/05/03 09:15:36;;;;;;;5.20;2.58;;;17.20;96.40;;;;;;4915656;29;20217;-76
2023/05/03 09:18:08;;;;;;;3.20;2.30;;;17.10;97.20;;;;;;4909474;29;20214;-76
2023/05/03 09:20:36;;;;;;;6.65;2.55;;;17.10;97.10;;;;;;4891226;29;20226;-75
2023/05/03 09:23:03;;;;;;;3.50;2.40;;;17.20;97.50;;;;;;4915289;29;20248;-76
2023/05/03 09:25:48;;;;;;;6.80;3.22;;;17.20;97.80;;;;;;4904659;29;20289;-78
2023/05/03 09:28:16;;;;;;;6.68;3.03;;;17.20;96.30;;;;;;4910342;29;20742;-77
2023/05/03 09:30:43;;;;;;;4.50;2.83;;;17.00;97.30;;;;;;4911781;29;20774;-77
2023/05/03 09:33:11;;;;;;;5.07;3.25;;;16.90;97.40;;;;;;4880759;29;20213;-77
2023/05/03 09:35:54;;;;;;;5.50;2.90;;;16.80;97.40;;;;;;4881402;29;20218;-77
2023/05/03 09:38:29;;;;;;;6.13;3.17;;;16.80;97.50;;;;;;4903875;29;20568;-77
2023/05/03 09:40:56;;;;;;;4.65;3.20;;;16.80;98.60;;;;;;4906879;29;20217;-79
2023/05/03 09:43:23;;;;;;;4.95;3.15;;;17.10;98.80;;;;;;4909645;29;20221;-76
2023/05/03 09:45:50;;;;;;;7.20;3.30;;;17.10;98.20;;;;;;4896484;29;20301;-77
2023/05/03 09:48:21;;;;;;;6.53;2.88;;;16.90;97.70;;;;;;4904469;29;20231;-78
2023/05/03 09:50:48;;;;;;;7.38;2.92;;;16.80;98.10;;;;;;4912818;29;20606;-78
2023/05/03 09:53:17;;;;;;;6.65;2.72;;;17.10;97.70;;;;;;4896516;29;20217;-78
2023/05/03 09:55:45;;;;;;;6.28;3.20;;;17.10;97.40;;;;;;4912529;29;20726;-80
2023/05/03 09:58:14;;;;;;;5.90;3.50;;;17.10;97.20;;;;;;4913180;29;20291;-78
2023/05/03 10:00:45;;;;;;;5.80;3.47;;;17.10;97.70;;;;;;4911544;29;20224;-80
2023/05/03 10:03:21;;;;;;;6.88;3.42;;;17.00;97.50;;;;;;4909158;29;20301;-79
2023/05/03 10:05:50;;;;;;;8.60;3.63;;;16.90;97.60;;;;;;4908338;29;20213;-78
2023/05/03 10:08:23;;;;;;;8.07;3.55;;;17.00;97.30;;;;;;4907699;29;20206;-77
2023/05/03 10:10:52;;;;;;;6.20;3.08;;;17.00;98.00;;;;;;4911577;29;20297;-77
2023/05/03 10:13:23;;;;;;;5.10;2.97;;;17.00;97.80;;;;;;4909828;29;20213;-78
2023/05/03 10:16:00;;;;;;;3.80;2.55;;;17.10;97.20;;;;;;4912403;29;20313;-77
2023/05/03 10:18:30;;;;;;;3.92;2.92;;;16.70;97.40;;;;;;4912811;29;20215;-80
2023/05/03 10:21:06;;;;;;;8.43;3.33;;;16.80;97.90;;;;;;4911350;29;20206;-76
2023/05/03 10:23:32;;;;;;;4.38;2.78;;;16.90;97.40;;;;;;4911183;29;20214;-77
2023/05/03 10:26:10;;;;;;;6.55;2.75;;;17.10;97.00;;;;;;4909971;29;20649;-78
2023/05/03 10:28:36;;;;;;;4.88;2.80;;;17.10;96.40;;;;;;4908077;29;20837;-76
2023/05/03 10:31:04;;;;;;;5.38;3.20;;;17.20;96.90;;;;;;4913426;29;20372;-77
2023/05/03 10:33:33;;;;;;;5.65;3.15;;;17.40;97.00;;;;;;4911363;29;20210;-78
2023/05/03 10:36:09;;;;;;;6.28;3.28;;;17.40;97.20;;;;;;4908030;29;20221;-78
2023/05/03 10:38:36;;;;;;;5.05;3.55;;;17.40;97.20;;;;;;4910678;29;20209;-78
2023/05/03 10:41:05;;;;;;;5.40;3.20;;;17.50;96.90;;;;;;4918024;29;20392;-79
2023/05/03 10:43:32;;;;;;;3.53;3.22;;;17.60;96.70;;;;;;4898992;29;20651;-78
2023/05/03 10:46:04;;;;;;;6.35;3.40;;;17.60;96.40;;;;;;4914644;29;20217;-80
2023/05/03 10:48:37;;;;;;;3.83;2.95;;;17.50;96.30;;;;;;4914132;29;20214;-80
2023/05/03 10:51:32;;;;;;;3.78;3.40;;;17.30;96.60;;;;;;4897020;29;20225;-80
2023/05/03 10:53:59;;;;;;;5.28;3.58;;;17.20;96.80;;;;;;4915879;29;20618;-79
2023/05/03 10:56:26;;;;;;;4.50;3.20;;;17.20;96.80;;;;;;4911790;29;20286;-79
2023/05/03 10:58:57;;;;;;;5.88;3.53;;;17.10;96.50;;;;;;4914345;29;20569;-79
2023/05/03 11:01:26;;;;;;;6.55;3.72;;;17.30;97.50;;;;;;4915222;29;20617;-82
2023/05/03 11:04:16;;;;;;;8.40;3.78;;;17.30;97.50;;;;;;4913997;29;20206;-80
2023/05/03 11:06:45;;;;;;;8.90;4.20;;;17.50;97.40;;;;;;4913917;29;20222;-79
2023/05/03 11:09:13;;;;;;;5.50;3.70;;;17.80;97.00;;;;;;4913945;29;20653;-78
2023/05/03 11:11:42;;;;;;;5.55;3.88;;;17.70;97.00;;;;;;4912650;29;20217;-80
2023/05/03 11:14:10;;;;;;;5.60;3.58;;;17.60;96.80;;;;;;4913622;29;20709;-78
2023/05/03 11:16:45;;;;;;;6.80;4.22;;;17.50;97.20;;;;;;4913147;29;20285;-78
2023/05/03 11:19:14;;;;;;;7.15;4.07;;;17.40;97.80;;;;;;4912615;29;20217;-78
2023/05/03 11:21:42;;;;;;;5.35;4.50;;;17.30;97.90;;;;;;4913883;29;20675;-78
2023/05/03 11:24:09;;;;;;;6.50;4.05;;;17.20;97.80;;;;;;4915448;29;20270;-78
2023/05/03 11:26:37;;;;;;;6.78;4.25;;;17.60;97.60;;;;;;4909856;29;20250;-78
2023/05/03 11:29:04;;;;;;;6.93;4.03;;;17.70;97.40;;;;;;4913677;29;20206;-79
2023/05/03 11:31:31;;;;;;;5.00;4.00;;;17.70;97.40;;;;;;4912259;29;20324;-79
2023/05/03 11:33:58;;;;;;;7.10;3.65;;;17.80;97.40;;;;;;4897849;29;20202;-79
2023/05/03 11:36:26;;;;;;;6.50;4.43;;;17.80;97.30;;;;;;4915632;29;20616;-78
2023/05/03 11:38:53;;;;;;;6.15;4.10;;;18.00;96.80;;;;;;4924657;29;20671;-77
2023/05/03 11:41:20;;;;;;;5.40;4.35;;;17.70;96.50;;;;;;4915325;29;20850;-78
2023/05/03 11:43:48;;;;;;;10.27;4.40;;;17.80;97.00;;;;;;4914037;29;20218;-77
2023/05/03 11:46:36;;;;;;;8.38;4.07;;;18.00;96.70;;;;;;4912042;29;20209;-78
2023/05/03 11:49:03;;;;;;;6.22;4.13;;;18.00;96.10;;;;;;4914527;29;20696;-80
2023/05/03 11:51:30;;;;;;;6.32;4.07;;;18.10;96.30;;;;;;4914251;29;20226;-80
2023/05/03 11:54:00;;;;;;;6.05;4.05;;;18.00;97.40;;;;;;4914835;29;20316;-78
2023/05/03 11:56:47;;;;;;;7.15;3.67;;;18.00;97.60;;;;;;4892403;29;20225;-79
2023/05/03 11:59:15;;;;;;;5.93;4.15;;;18.10;97.60;;;;;;4894656;29;20246;-80
2023/05/03 12:01:43;;;;;;;4.45;3.70;;;17.90;97.10;;;;;;4877808;29;20206;-78
2023/05/03 12:04:11;;;;;;;8.82;3.55;;;18.10;97.40;;;;;;4890674;29;20214;-80
2023/05/03 12:06:39;;;;;;;5.72;3.50;;;18.30;97.70;;;;;;4885620;29;20221;-77
2023/05/03 12:09:13;;;;;;;6.07;3.97;;;18.40;97.20;;;;;;4894478;29;20719;-77
2023/05/03 12:11:42;;;;;;;9.52;4.00;;;18.50;97.10;;;;;;4877053;29;20234;-80
2023/05/03 12:14:11;;;;;;;4.35;3.28;;;18.40;97.00;;;;;;4892096;29;20214;-78
2023/05/03 12:16:53;;;;;;;4.38;3.80;;;18.50;96.60;;;;;;4890769;29;20214;-79
2023/05/03 12:19:26;;;;;;;7.50;3.78;;;18.50;96.10;;;;;;4892680;29;20361;-79
2023/05/03 12:21:57;;;;;;;7.40;3.42;;;18.50;96.00;;;;;;4895036;29;20676;-80
2023/05/03 12:24:30;;;;;;;5.43;3.78;;;18.50;96.50;;;;;;4875471;29;20207;-76
2023/05/03 12:27:00;;;;;;;6.18;3.95;;;18.60;96.60;;;;;;4893495;29;20210;-79
2023/05/03 12:29:30;;;;;;;5.97;3.63;;;18.70;96.20;;;;;;4874271;29;20223;-79
2023/05/03 12:32:01;;;;;;;5.15;3.53;;;18.80;95.90;;;;;;4891738;29;20238;-79
2023/05/03 12:34:30;;;;;;;4.53;4.13;;;18.80;95.40;;;;;;4892101;29;20305;-77
2023/05/03 12:37:02;;;;;;;4.85;3.80;;;18.60;94.90;;;;;;4897631;29;20242;-78
2023/05/03 12:39:31;;;;;;;8.15;3.58;;;18.60;94.60;;;;;;4877102;29;20697;-78
2023/05/03 12:42:00;;;;;;;5.78;3.95;;;18.70;94.80;;;;;;4894803;29;20234;-78
2023/05/03 12:44:30;;;;;;;4.47;4.03;;;18.70;95.50;;;;;;4895191;29;20230;-77
2023/05/03 12:47:01;;;;;;;4.45;3.83;;;18.80;95.30;;;;;;4892984;29;20246;-78
2023/05/03 12:49:29;;;;;;;9.00;4.00;;;18.90;96.00;;;;;;4891569;29;20733;-77
2023/05/03 12:51:59;;;;;;;5.32;4.05;;;18.90;95.70;;;;;;4883847;29;20297;-76
2023/05/03 12:54:29;;;;;;;6.10;4.10;;;18.80;95.50;;;;;;4897103;29;20206;-78
2023/05/03 12:57:03;;;;;;;6.65;4.07;;;18.90;95.60;;;;;;4898161;29;20710;-77